Terminal Aerodrome Forecast
Issued by NWS

Home | Current Version | Previous Version | Text Only | Print | Product List | Glossary On
Versions: 1 2 3 4 5 6 7 8 9 10 11 12 13 14 15 16 17
000
FTUS43 KPAH 280938 AAA
TAFCGI
TAF AMD
KCGI 280938Z 2810/2906 00000KT 3SM BR SKC
      TEMPO 2810/2813 1/4SM FG VV002
     FM281500 17007KT P6SM FEW040=

USA.gov is the U.S. government's official web portal to all federal, state and local government web resources and services.